Time,TemperatureF,DewpointF,PressureIn,WindDirection,WindDirectionDegrees,WindSpeedMPH,WindSpeedGustMPH,Humidity,HourlyPrecipIn,Conditions,Clouds,dailyrainin,SoftwareType,DateUTC
2013-05-22 15:32:00,77.0,-99.9,29.96,ESE,120,11.0,13.0,-999,-99.99,,,-99.99,,2013-05-22 19:32:00,
2013-05-22 15:42:00,77.0,-99.9,29.96,ESE,120,11.0,13.0,-999,-99.99,,,-99.99,,2013-05-22 19:42:00,
2013-05-22 15:52:00,77.0,-99.9,29.96,ESE,120,11.0,13.0,-999,-99.99,,,-99.99,,2013-05-22 19:52:00,
2013-05-22 16:00:00,80.0,-99.9,29.96,East,90,16.0,20.0,-999,-99.99,,,-99.99,,2013-05-22 20:00:00,
2013-05-22 16:02:00,78.0,-99.9,29.96,East,100,11.0,18.0,-999,-99.99,,,-99.99,,2013-05-22 20:02:00,
2013-05-22 16:11:00,78.0,-99.9,29.96,East,100,11.0,18.0,-999,-99.99,,,-99.99,,2013-05-22 20:11:00,
2013-05-22 16:22:00,78.0,-99.9,29.96,East,100,11.0,18.0,-999,-99.99,,,-99.99,,2013-05-22 20:22:00,
2013-05-22 16:32:00,80.0,-99.9,29.96,East,90,16.0,20.0,-999,-99.99,,,-99.99,,2013-05-22 20:32:00,
2013-05-22 16:42:00,80.0,-99.9,29.96,East,90,16.0,20.0,-999,-99.99,,,-99.99,,2013-05-22 20:42:00,
2013-05-22 16:52:00,80.0,-99.9,29.96,East,90,16.0,20.0,-999,-99.99,,,-99.99,,2013-05-22 20:52:00,
2013-05-22 17:11:00,80.0,-99.9,29.97,ESE,110,13.0,20.0,-999,-99.99,,,-99.99,,2013-05-22 21:11:00,
2013-05-22 17:22:00,80.0,-99.9,29.97,ESE,110,13.0,20.0,-999,-99.99,,,-99.99,,2013-05-22 21:22:00,
2013-05-22 17:33:00,77.0,-99.9,29.96,SSE,160,9.0,13.0,-999,-99.99,,,-99.99,,2013-05-22 21:33:00,
2013-05-22 17:42:00,77.0,-99.9,29.96,SSE,160,9.0,13.0,-999,-99.99,,,-99.99,,2013-05-22 21:42:00,
2013-05-22 17:53:00,77.0,-99.9,29.96,SSE,160,9.0,13.0,-999,-99.99,,,-99.99,,2013-05-22 21:53:00,
2013-05-22 18:03:00,76.0,-99.9,29.97,South,170,11.0,20.0,-999,-99.99,,,-99.99,,2013-05-22 22:03:00,
2013-05-22 18:13:00,76.0,-99.9,29.97,South,170,11.0,20.0,-999,-99.99,,,-99.99,,2013-05-22 22:13:00,
2013-05-22 18:22:00,76.0,-99.9,29.97,South,170,11.0,20.0,-999,-99.99,,,-99.99,,2013-05-22 22:22:00,
2013-05-22 18:33:00,77.0,-99.9,29.97,SSE,150,7.0,11.0,-999,-99.99,,,-99.99,,2013-05-22 22:33:00,
2013-05-22 18:42:00,77.0,-99.9,29.97,SSE,150,7.0,11.0,-999,-99.99,,,-99.99,,2013-05-22 22:42:00,
2013-05-22 18:52:00,77.0,-99.9,29.97,SSE,150,7.0,11.0,-999,-99.99,,,-99.99,,2013-05-22 22:52:00,
2013-05-22 19:02:00,78.0,-99.9,29.96,ESE,120,9.0,13.0,-999,-99.99,,,-99.99,,2013-05-22 23:02:00,
2013-05-22 19:13:00,78.0,-99.9,29.96,ESE,120,9.0,13.0,-999,-99.99,,,-99.99,,2013-05-22 23:13:00,
2013-05-22 19:22:00,78.0,-99.9,29.96,ESE,120,9.0,13.0,-999,-99.99,,,-99.99,,2013-05-22 23:22:00,
2013-05-22 19:30:00,81.0,-99.9,29.96,East,90,18.0,22.0,-999,-99.99,,,-99.99,,2013-05-22 23:30:00,
2013-05-22 19:32:00,80.0,-99.9,29.96,East,90,16.0,20.0,-999,-99.99,,,-99.99,,2013-05-22 23:32:00,
2013-05-22 19:42:00,80.0,-99.9,29.96,East,90,16.0,20.0,-999,-99.99,,,-99.99,,2013-05-22 23:42:00,
2013-05-22 19:53:00,80.0,-99.9,29.96,East,90,16.0,20.0,-999,-99.99,,,-99.99,,2013-05-22 23:53:00,
2013-05-22 20:02:00,81.0,-99.9,29.96,East,90,18.0,22.0,-999,-99.99,,,-99.99,,2013-05-23 00:02:00,
2013-05-22 20:11:00,81.0,-99.9,29.96,East,90,18.0,22.0,-999,-99.99,,,-99.99,,2013-05-23 00:11:00,
2013-05-22 20:22:00,81.0,-99.9,29.96,East,90,18.0,22.0,-999,-99.99,,,-99.99,,2013-05-23 00:22:00,
2013-05-22 20:52:00,80.0,-99.9,29.98,East,100,18.0,22.0,-999,-99.99,,,-99.99,,2013-05-23 00:52:00,
2013-05-22 21:02:00,79.0,-99.9,29.99,ESE,120,13.0,16.0,-999,-99.99,,,-99.99,,2013-05-23 01:02:00,
2013-05-22 21:11:00,79.0,-99.9,29.99,ESE,120,13.0,16.0,-999,-99.99,,,-99.99,,2013-05-23 01:11:00,
2013-05-22 21:22:00,79.0,-99.9,29.99,ESE,120,13.0,16.0,-999,-99.99,,,-99.99,,2013-05-23 01:22:00,
2013-05-22 21:32:00,79.0,-99.9,30.00,ESE,110,11.0,16.0,-999,-99.99,,,-99.99,,2013-05-23 01:32:00,
2013-05-22 21:42:00,79.0,-99.9,30.00,ESE,110,11.0,16.0,-999,-99.99,,,-99.99,,2013-05-23 01:42:00,
2013-05-22 21:52:00,79.0,-99.9,30.00,ESE,110,11.0,16.0,-999,-99.99,,,-99.99,,2013-05-23 01:52:00,
2013-05-22 22:02:00,80.0,-99.9,30.01,East,100,13.0,16.0,-999,-99.99,,,-99.99,,2013-05-23 02:02:00,
2013-05-22 22:11:00,80.0,-99.9,30.01,East,100,13.0,16.0,-999,-99.99,,,-99.99,,2013-05-23 02:11:00,
2013-05-22 22:22:00,80.0,-99.9,30.01,East,100,13.0,16.0,-999,-99.99,,,-99.99,,2013-05-23 02:22:00,
2013-05-22 22:32:00,80.0,-99.9,30.02,ESE,110,13.0,16.0,-999,-99.99,,,-99.99,,2013-05-23 02:32:00,
2013-05-22 22:42:00,80.0,-99.9,30.02,ESE,110,13.0,16.0,-999,-99.99,,,-99.99,,2013-05-23 02:42:00,
2013-05-22 22:52:00,80.0,-99.9,30.02,ESE,110,13.0,16.0,-999,-99.99,,,-99.99,,2013-05-23 02:52:00,
2013-05-22 23:02:00,80.0,-99.9,30.02,East,100,13.0,18.0,-999,-99.99,,,-99.99,,2013-05-23 03:02:00,
2013-05-22 23:11:00,80.0,-99.9,30.02,East,100,13.0,18.0,-999,-99.99,,,-99.99,,2013-05-23 03:11:00,
2013-05-22 23:22:00,80.0,-99.9,30.02,East,100,13.0,18.0,-999,-99.99,,,-99.99,,2013-05-23 03:22:00,
2013-05-22 23:33:00,80.0,-99.9,30.02,East,90,20.0,25.0,-999,-99.99,,,-99.99,,2013-05-23 03:33:00,
2013-05-22 23:43:00,80.0,-99.9,30.02,East,90,20.0,25.0,-999,-99.99,,,-99.99,,2013-05-23 03:43:00,
2013-05-22 23:53:00,80.0,-99.9,30.02,East,90,20.0,25.0,-999,-99.99,,,-99.99,,2013-05-23 03:53:00,